SEKEE ESSB-ESVQ
Flight info
| Callsign | SEKEE |
|---|---|
| Flight time | 0h 39m |
| Altitude | 3000 |
| Route | ABKIN TIXES |
| Aircraft | BT36/L-BDFGLORY/S |
Departure
| Time | 2026-04-22 13:50 |
|---|---|
| Airport | Stockholm-Bromma Airport (ESSB) |
Arrival
| Time | 2026-04-22 14:29 |
|---|---|
| Airport | Köping/Gålby Airfield (ESVQ) |
| Time | Latitude | Longitude | Altitude | Speed | Heading |
|---|---|---|---|---|---|
| 2026-04-22 13:37 | 59.35378 | 17.95135 | 34 ft | 0 kts | 313° |
| 2026-04-22 13:43 | 59.35386 | 17.95138 | 34 ft | 4 kts | 55° |
| 2026-04-22 13:44 | 59.35344 | 17.95158 | 34 ft | 11 kts | 166° |
| 2026-04-22 13:44 | 59.35275 | 17.95229 | 34 ft | 9 kts | 174° |
| 2026-04-22 13:44 | 59.35264 | 17.95136 | 35 ft | 8 kts | 269° |
| 2026-04-22 13:44 | 59.35221 | 17.95056 | 35 ft | 6 kts | 217° |
| 2026-04-22 13:45 | 59.35219 | 17.95054 | 35 ft | 0 kts | 217° |
| 2026-04-22 13:45 | 59.35219 | 17.95053 | 35 ft | 0 kts | 211° |
| 2026-04-22 13:48 | 59.35209 | 17.95042 | 36 ft | 6 kts | 210° |
| 2026-04-22 13:48 | 59.35160 | 17.94955 | 36 ft | 11 kts | 261° |
| 2026-04-22 13:49 | 59.35181 | 17.94877 | 34 ft | 0 kts | 303° |
| 2026-04-22 13:49 | 59.35223 | 17.94757 | 35 ft | 45 kts | 304° |
| 2026-04-22 13:49 | 59.35516 | 17.93946 | 208 ft | 86 kts | 306° |
| 2026-04-22 13:49 | 59.35888 | 17.92930 | 611 ft | 96 kts | 302° |
| 2026-04-22 13:50 | 59.36050 | 17.91602 | 989 ft | 118 kts | 271° |
| 2026-04-22 13:50 | 59.35889 | 17.89892 | 1190 ft | 133 kts | 262° |
| 2026-04-22 13:50 | 59.35665 | 17.88109 | 1263 ft | 136 kts | 269° |
| 2026-04-22 13:50 | 59.35572 | 17.86266 | 1289 ft | 137 kts | 270° |
| 2026-04-22 13:51 | 59.35454 | 17.84424 | 1162 ft | 136 kts | 270° |
| 2026-04-22 13:51 | 59.35318 | 17.82640 | 1153 ft | 132 kts | 267° |
| 2026-04-22 13:51 | 59.35282 | 17.80895 | 1152 ft | 123 kts | 291° |
| 2026-04-22 13:51 | 59.35682 | 17.79470 | 1167 ft | 118 kts | 308° |
| 2026-04-22 13:52 | 59.36153 | 17.78158 | 1153 ft | 119 kts | 306° |
| 2026-04-22 13:52 | 59.36620 | 17.76824 | 1211 ft | 119 kts | 306° |
| 2026-04-22 13:52 | 59.37053 | 17.75441 | 1273 ft | 118 kts | 303° |
| 2026-04-22 13:52 | 59.37577 | 17.74126 | 1218 ft | 127 kts | 315° |
| 2026-04-22 13:53 | 59.38294 | 17.73149 | 1203 ft | 129 kts | 334° |
| 2026-04-22 13:53 | 59.39188 | 17.72884 | 1219 ft | 131 kts | 356° |
| 2026-04-22 13:53 | 59.40098 | 17.72999 | 1177 ft | 131 kts | 358° |
| 2026-04-22 13:53 | 59.40994 | 17.73100 | 1245 ft | 128 kts | 358° |
| 2026-04-22 13:54 | 59.41898 | 17.73199 | 1137 ft | 130 kts | 357° |
| 2026-04-22 13:54 | 59.42786 | 17.73210 | 1140 ft | 126 kts | 354° |
| 2026-04-22 13:54 | 59.43638 | 17.73115 | 1173 ft | 121 kts | 349° |
| 2026-04-22 13:54 | 59.44480 | 17.72859 | 1119 ft | 126 kts | 344° |
| 2026-04-22 13:55 | 59.45333 | 17.72459 | 1113 ft | 126 kts | 340° |
| 2026-04-22 13:55 | 59.46087 | 17.71669 | 1108 ft | 123 kts | 315° |
| 2026-04-22 13:55 | 59.46458 | 17.70175 | 1139 ft | 123 kts | 291° |
| 2026-04-22 13:55 | 59.46659 | 17.68576 | 1187 ft | 121 kts | 287° |
| 2026-04-22 13:56 | 59.46846 | 17.66895 | 1115 ft | 126 kts | 288° |
| 2026-04-22 13:56 | 59.47101 | 17.65241 | 1036 ft | 128 kts | 294° |
| 2026-04-22 13:56 | 59.47438 | 17.63686 | 1039 ft | 124 kts | 300° |
| 2026-04-22 13:56 | 59.47818 | 17.62156 | 1050 ft | 121 kts | 299° |
| 2026-04-22 13:57 | 59.48157 | 17.60663 | 1220 ft | 120 kts | 294° |
| 2026-04-22 13:57 | 59.48453 | 17.59127 | 1388 ft | 123 kts | 294° |
| 2026-04-22 13:57 | 59.48714 | 17.57479 | 1529 ft | 131 kts | 288° |
| 2026-04-22 13:57 | 59.48887 | 17.55728 | 1870 ft | 128 kts | 287° |
| 2026-04-22 13:58 | 59.49031 | 17.54002 | 2166 ft | 128 kts | 283° |
| 2026-04-22 13:58 | 59.49132 | 17.52230 | 2337 ft | 135 kts | 277° |
| 2026-04-22 13:58 | 59.48922 | 17.50409 | 2576 ft | 143 kts | 243° |
| 2026-04-22 13:58 | 59.48341 | 17.48799 | 2743 ft | 147 kts | 241° |
| 2026-04-22 13:59 | 59.47717 | 17.47203 | 2933 ft | 148 kts | 239° |
| 2026-04-22 13:59 | 59.47058 | 17.45625 | 2985 ft | 149 kts | 237° |
| 2026-04-22 13:59 | 59.46433 | 17.44038 | 2924 ft | 146 kts | 247° |
| 2026-04-22 13:59 | 59.46034 | 17.42267 | 2938 ft | 137 kts | 258° |
| 2026-04-22 14:00 | 59.45782 | 17.40483 | 2940 ft | 132 kts | 267° |
| 2026-04-22 14:00 | 59.45667 | 17.38714 | 2946 ft | 131 kts | 269° |
| 2026-04-22 14:00 | 59.45543 | 17.36940 | 2977 ft | 132 kts | 269° |
| 2026-04-22 14:00 | 59.45417 | 17.35137 | 2911 ft | 134 kts | 269° |
| 2026-04-22 14:01 | 59.45355 | 17.33343 | 2953 ft | 129 kts | 279° |
| 2026-04-22 14:01 | 59.45493 | 17.31643 | 3024 ft | 121 kts | 285° |
| 2026-04-22 14:01 | 59.45632 | 17.30025 | 3037 ft | 122 kts | 284° |
| 2026-04-22 14:01 | 59.45771 | 17.28348 | 2973 ft | 128 kts | 284° |
| 2026-04-22 14:02 | 59.45879 | 17.26604 | 2958 ft | 127 kts | 282° |
| 2026-04-22 14:02 | 59.45971 | 17.24872 | 2943 ft | 129 kts | 281° |
| 2026-04-22 14:02 | 59.46040 | 17.23113 | 2966 ft | 128 kts | 280° |
| 2026-04-22 14:02 | 59.46119 | 17.21372 | 2959 ft | 129 kts | 280° |
| 2026-04-22 14:03 | 59.46127 | 17.21150 | 2955 ft | 130 kts | 279° |
| 2026-04-22 14:03 | 59.46142 | 17.20591 | 2946 ft | 130 kts | 278° |
| 2026-04-22 14:03 | 59.46161 | 17.18822 | 2956 ft | 128 kts | 277° |
| 2026-04-22 14:03 | 59.46129 | 17.17045 | 2906 ft | 131 kts | 272° |
| 2026-04-22 14:04 | 59.46137 | 17.15291 | 2937 ft | 125 kts | 282° |
| 2026-04-22 14:04 | 59.46225 | 17.13572 | 2979 ft | 126 kts | 281° |
| 2026-04-22 14:04 | 59.46283 | 17.11850 | 2950 ft | 128 kts | 278° |
| 2026-04-22 14:04 | 59.46315 | 17.10109 | 2953 ft | 127 kts | 278° |
| 2026-04-22 14:05 | 59.46400 | 17.08380 | 2972 ft | 126 kts | 284° |
| 2026-04-22 14:05 | 59.46522 | 17.06655 | 2980 ft | 128 kts | 284° |
| 2026-04-22 14:05 | 59.46791 | 17.03201 | 3050 ft | 130 kts | 283° |
| 2026-04-22 14:06 | 59.46910 | 17.01424 | 3053 ft | 131 kts | 281° |
| 2026-04-22 14:06 | 59.47008 | 16.99664 | 3097 ft | 130 kts | 282° |
| 2026-04-22 14:06 | 59.47126 | 16.97920 | 3120 ft | 127 kts | 283° |
| 2026-04-22 14:06 | 59.47235 | 16.96171 | 3050 ft | 129 kts | 281° |
| 2026-04-22 14:07 | 59.47321 | 16.94451 | 3050 ft | 128 kts | 280° |
| 2026-04-22 14:07 | 59.47428 | 16.92697 | 2992 ft | 130 kts | 283° |
| 2026-04-22 14:07 | 59.47635 | 16.90961 | 2976 ft | 127 kts | 292° |
| 2026-04-22 14:07 | 59.47962 | 16.89370 | 2967 ft | 125 kts | 298° |
| 2026-04-22 14:08 | 59.48321 | 16.87852 | 2961 ft | 125 kts | 298° |
| 2026-04-22 14:08 | 59.48728 | 16.86349 | 2946 ft | 123 kts | 305° |
| 2026-04-22 14:08 | 59.49220 | 16.84970 | 2928 ft | 122 kts | 309° |
| 2026-04-22 14:08 | 59.49769 | 16.83721 | 2957 ft | 120 kts | 315° |
| 2026-04-22 14:09 | 59.50379 | 16.82538 | 2929 ft | 125 kts | 319° |
| 2026-04-22 14:09 | 59.51007 | 16.81430 | 3048 ft | 122 kts | 317° |
| 2026-04-22 14:09 | 59.51641 | 16.80290 | 3014 ft | 124 kts | 317° |
| 2026-04-22 14:09 | 59.52264 | 16.79138 | 3023 ft | 122 kts | 316° |
| 2026-04-22 14:10 | 59.52669 | 16.78332 | 2996 ft | 124 kts | 314° |
| 2026-04-22 14:10 | 59.53260 | 16.77088 | 2993 ft | 125 kts | 314° |
| 2026-04-22 14:10 | 59.53800 | 16.75806 | 3083 ft | 123 kts | 310° |
| 2026-04-22 14:10 | 59.54337 | 16.74428 | 3132 ft | 126 kts | 309° |
| 2026-04-22 14:11 | 59.54860 | 16.73045 | 3222 ft | 125 kts | 307° |
| 2026-04-22 14:11 | 59.55437 | 16.71736 | 3165 ft | 130 kts | 319° |
| 2026-04-22 14:11 | 59.56143 | 16.70658 | 3153 ft | 131 kts | 322° |
| 2026-04-22 14:11 | 59.56888 | 16.69639 | 3144 ft | 131 kts | 324° |
| 2026-04-22 14:12 | 59.57653 | 16.68663 | 3086 ft | 131 kts | 324° |
| 2026-04-22 14:12 | 59.58408 | 16.67679 | 3064 ft | 130 kts | 324° |
| 2026-04-22 14:12 | 59.59163 | 16.66704 | 3002 ft | 130 kts | 326° |
| 2026-04-22 14:12 | 59.59909 | 16.65683 | 2989 ft | 130 kts | 321° |
| 2026-04-22 14:13 | 59.60558 | 16.64490 | 3014 ft | 128 kts | 308° |
| 2026-04-22 14:13 | 59.60837 | 16.62845 | 3031 ft | 130 kts | 285° |
| 2026-04-22 14:13 | 59.61146 | 16.61172 | 2928 ft | 128 kts | 303° |
| 2026-04-22 14:13 | 59.61517 | 16.59583 | 2872 ft | 130 kts | 294° |
| 2026-04-22 14:14 | 59.61801 | 16.57886 | 2872 ft | 130 kts | 291° |
| 2026-04-22 14:14 | 59.62044 | 16.56154 | 2837 ft | 131 kts | 288° |
| 2026-04-22 14:14 | 59.62195 | 16.54374 | 2833 ft | 134 kts | 278° |
| 2026-04-22 14:14 | 59.62225 | 16.52547 | 2868 ft | 133 kts | 276° |
| 2026-04-22 14:15 | 59.62143 | 16.50699 | 2890 ft | 140 kts | 259° |
| 2026-04-22 14:15 | 59.61783 | 16.48881 | 2907 ft | 141 kts | 253° |
| 2026-04-22 14:15 | 59.61346 | 16.47141 | 2865 ft | 144 kts | 247° |
| 2026-04-22 14:15 | 59.60836 | 16.45470 | 2910 ft | 141 kts | 248° |
| 2026-04-22 14:16 | 59.60332 | 16.43786 | 2839 ft | 143 kts | 246° |
| 2026-04-22 14:16 | 59.59801 | 16.42098 | 2833 ft | 143 kts | 243° |
| 2026-04-22 14:16 | 59.59280 | 16.40459 | 2779 ft | 143 kts | 248° |
| 2026-04-22 14:16 | 59.58778 | 16.38729 | 2765 ft | 143 kts | 247° |
| 2026-04-22 14:17 | 59.58250 | 16.37097 | 2769 ft | 143 kts | 244° |
| 2026-04-22 14:17 | 59.57686 | 16.35426 | 2688 ft | 146 kts | 247° |
| 2026-04-22 14:17 | 59.57319 | 16.33655 | 2701 ft | 137 kts | 264° |
| 2026-04-22 14:17 | 59.57249 | 16.31780 | 2637 ft | 134 kts | 284° |
| 2026-04-22 14:18 | 59.57631 | 16.30241 | 2745 ft | 121 kts | 311° |
| 2026-04-22 14:18 | 59.58227 | 16.29079 | 2582 ft | 121 kts | 315° |
| 2026-04-22 14:18 | 59.58838 | 16.27861 | 2222 ft | 132 kts | 310° |
| 2026-04-22 14:18 | 59.59226 | 16.26310 | 2185 ft | 121 kts | 284° |
| 2026-04-22 14:19 | 59.59146 | 16.24638 | 2055 ft | 123 kts | 263° |
| 2026-04-22 14:19 | 59.58945 | 16.22995 | 2012 ft | 125 kts | 262° |
| 2026-04-22 14:19 | 59.58702 | 16.21306 | 1937 ft | 128 kts | 260° |
| 2026-04-22 14:19 | 59.58423 | 16.19638 | 1979 ft | 127 kts | 259° |
| 2026-04-22 14:20 | 59.57878 | 16.16376 | 2058 ft | 123 kts | 258° |
| 2026-04-22 14:20 | 59.57559 | 16.14874 | 2082 ft | 123 kts | 258° |
| 2026-04-22 14:20 | 59.57294 | 16.13256 | 2100 ft | 126 kts | 262° |
| 2026-04-22 14:21 | 59.56836 | 16.09865 | 2036 ft | 130 kts | 259° |
| 2026-04-22 14:21 | 59.56539 | 16.08197 | 1999 ft | 127 kts | 256° |
| 2026-04-22 14:22 | 59.55803 | 16.04934 | 1913 ft | 131 kts | 245° |
| 2026-04-22 14:22 | 59.55299 | 16.03411 | 1840 ft | 132 kts | 243° |
| 2026-04-22 14:22 | 59.54144 | 16.00367 | 1245 ft | 141 kts | 243° |
| 2026-04-22 14:23 | 59.53763 | 15.98666 | 1000 ft | 128 kts | 255° |
| 2026-04-22 14:23 | 59.53345 | 15.97204 | 882 ft | 114 kts | 248° |
| 2026-04-22 14:23 | 59.52957 | 15.95883 | 822 ft | 105 kts | 253° |
| 2026-04-22 14:23 | 59.52773 | 15.94597 | 854 ft | 98 kts | 266° |
| 2026-04-22 14:24 | 59.52691 | 15.93269 | 769 ft | 96 kts | 269° |
| 2026-04-22 14:24 | 59.52254 | 15.92393 | 675 ft | 98 kts | 190° |
| 2026-04-22 14:24 | 59.51732 | 15.93079 | 584 ft | 98 kts | 105° |
| 2026-04-22 14:24 | 59.51823 | 15.94260 | 444 ft | 85 kts | 44° |
| 2026-04-22 14:25 | 59.52253 | 15.94994 | 286 ft | 80 kts | 37° |
| 2026-04-22 14:25 | 59.52560 | 15.95938 | 157 ft | 83 kts | 59° |
| 2026-04-22 14:25 | 59.52771 | 15.96857 | 27 ft | 61 kts | 62° |
| 2026-04-22 14:25 | 59.52981 | 15.97773 | 113 ft | 94 kts | 61° |
| 2026-04-22 14:26 | 59.53212 | 15.99147 | 422 ft | 114 kts | 58° |
| 2026-04-22 14:26 | 59.53817 | 16.00260 | 639 ft | 131 kts | 27° |
| 2026-04-22 14:26 | 59.54626 | 16.01090 | 1035 ft | 128 kts | 6° |
| 2026-04-22 14:26 | 59.55279 | 16.00417 | 1198 ft | 112 kts | 300° |
| 2026-04-22 14:27 | 59.55217 | 15.98772 | 1030 ft | 132 kts | 261° |
| 2026-04-22 14:27 | 59.54997 | 15.97029 | 983 ft | 127 kts | 260° |
| 2026-04-22 14:27 | 59.54605 | 15.95484 | 1001 ft | 129 kts | 239° |
| 2026-04-22 14:27 | 59.54000 | 15.94176 | 913 ft | 125 kts | 239° |
| 2026-04-22 14:28 | 59.53535 | 15.92840 | 823 ft | 117 kts | 251° |
| 2026-04-22 14:28 | 59.53042 | 15.91679 | 834 ft | 119 kts | 208° |
| 2026-04-22 14:28 | 59.52240 | 15.91926 | 762 ft | 121 kts | 144° |
| 2026-04-22 14:28 | 59.51856 | 15.93283 | 622 ft | 105 kts | 92° |
| 2026-04-22 14:29 | 59.52009 | 15.94509 | 447 ft | 90 kts | 41° |
| 2026-04-22 14:29 | 59.52419 | 15.95398 | 269 ft | 89 kts | 50° |
| 2026-04-22 14:29 | 59.52697 | 15.96530 | 56 ft | 84 kts | 59° |
| 2026-04-22 14:29 | 59.52885 | 15.97334 | 27 ft | 35 kts | 66° |
| 2026-04-22 14:30 | 59.52911 | 15.97443 | 29 ft | 8 kts | 254° |
| 2026-04-22 14:30 | 59.52876 | 15.97292 | 27 ft | 17 kts | 246° |
| 2026-04-22 14:30 | 59.52826 | 15.97055 | 25 ft | 20 kts | 245° |
| 2026-04-22 14:30 | 59.52765 | 15.96794 | 31 ft | 20 kts | 246° |
| 2026-04-22 14:31 | 59.52704 | 15.96551 | 34 ft | 19 kts | 236° |
| 2026-04-22 14:31 | 59.52644 | 15.96361 | 27 ft | 13 kts | 191° |
| 2026-04-22 14:31 | 59.52601 | 15.96349 | 29 ft | 0 kts | 320° |